Rechercher aéroport 
image banner adimage banner adimage banner ad
image banner ad

04CA - Gray Butte Field

Situé à Palmdale, United States

ICAO - 04CA, IATA -

Données fournies par Airmate  

Information générale

Coordonnées: N34°33'60" W117°40'13"
Élévation : 3028 feet MSL.
Variation magnétique : 14° East
Voir autres Aéroports à California

Données opérationnelles

Special qualification required
Heure actuelle UTC:
Heure actuelle locale:
METAR: KVCV 251245Z 11006KT 10SM CLR 23/06 A3002
Voir NOTAMs / SUP AIP / TFR affectant cet aéroport [VIEW]
Fréquences de communication: [VIEW]

Pistes:

Identifiant RWYQFULongueur (ft)Largeur (ft)SurfaceLDA (ft)
088000150ASPH
268000150ASPH

Coordonnées de l'aéroport

Adresse: Palmdale United States

Vue satellite de 04CA